< < Back
Terminal Aerodrome Forecast


Current Version              Previous Versions:   1  2  3  4  5  6  7  8  9  

Terminal Aerodrome Forecast

444
FTUS42 KJAX 231800 AAA
TAFSSI
TAF AMD
KSSI 231859Z 2319/2418 16004KT P6SM VCSH SCT005 OVC030
      TEMPO 2319/2321 5SM BR BKN002
     FM240400 16011KT P6SM VCSH OVC010
     FM240700 20005KT 1SM BR OVC003
     FM241600 21012KT P6SM BKN015=

Latest METAR

651
SAUS70 KWBC 240300 RRI
MTRSSI
METAR KSSI 240253Z AUTO 00000KT 6SM BR FEW012 SCT022 BKN027 19/19 A2990
RMK AO2 SLP123 T01940194 50012


USA.gov is the U.S. government's official web portal to all federal, state and local government web resources and services.